Time;durP1;ratioP1;P1;durP2;ratioP2;P2;SDS_P1;SDS_P2;PMS_P1;PMS_P2;Temp;Humidity;BMP_temperature;BMP_pressure;BME280_temperature;BME280_humidity;BME280_pressure;Samples;Min_cycle;Max_cycle;Signal;HPM_P1;HPM_P2
2021/09/25 00:01:28;;;;;;;5.13;3.38;;;22.50;58.50;;;;;;6246601;28;20025;-85
2021/09/25 00:04:29;;;;;;;9.05;3.45;;;22.40;58.30;;;;;;6249294;28;20065;-85
2021/09/25 00:07:30;;;;;;;8.15;3.65;;;22.40;58.30;;;;;;6247637;28;20053;-85
2021/09/25 00:10:33;;;;;;;6.20;3.38;;;22.40;58.20;;;;;;6240792;28;20028;-85
2021/09/25 00:13:34;;;;;;;7.22;3.00;;;22.40;58.10;;;;;;6246594;28;20380;-85
2021/09/25 00:16:35;;;;;;;4.68;2.58;;;22.40;57.90;;;;;;6268842;28;20112;-85
2021/09/25 00:19:37;;;;;;;5.03;3.03;;;22.50;57.90;;;;;;6271759;28;20349;-84
2021/09/25 00:22:40;;;;;;;5.38;2.85;;;22.40;57.70;;;;;;6272119;28;20032;-84
2021/09/25 00:25:42;;;;;;;3.97;2.92;;;22.40;57.60;;;;;;6246615;28;20084;-83
2021/09/25 00:28:43;;;;;;;5.65;3.05;;;22.40;57.50;;;;;;6260148;28;20040;-84
2021/09/25 00:31:44;;;;;;;6.40;2.58;;;22.30;57.40;;;;;;6272731;28;20036;-84
2021/09/25 00:34:45;;;;;;;5.88;2.63;;;22.30;57.30;;;;;;6244760;28;20076;-84
2021/09/25 00:37:46;;;;;;;5.10;3.17;;;22.20;57.40;;;;;;6248628;28;20037;-84
2021/09/25 00:40:47;;;;;;;7.45;3.28;;;22.20;57.50;;;;;;6245298;28;20045;-83
2021/09/25 00:43:48;;;;;;;6.45;3.40;;;22.10;57.60;;;;;;6251144;28;20118;-84
2021/09/25 00:46:50;;;;;;;6.38;3.42;;;22.10;57.70;;;;;;6268510;28;20075;-85
2021/09/25 00:49:51;;;;;;;4.85;3.47;;;22.20;57.90;;;;;;6246690;28;20051;-84
2021/09/25 00:52:54;;;;;;;8.30;3.35;;;22.10;58.00;;;;;;6251320;28;20350;-84
2021/09/25 00:55:55;;;;;;;5.50;3.15;;;22.10;58.30;;;;;;6236323;28;20056;-84
2021/09/25 00:58:57;;;;;;;5.55;3.67;;;22.10;58.60;;;;;;6251480;28;20074;-85
2021/09/25 01:01:58;;;;;;;7.57;3.75;;;22.10;58.90;;;;;;6247251;28;20032;-84
2021/09/25 01:05:01;;;;;;;6.93;3.70;;;22.00;59.10;;;;;;6242974;28;20117;-84
2021/09/25 01:08:03;;;;;;;4.22;2.70;;;22.00;59.20;;;;;;6242195;28;20454;-85
2021/09/25 01:11:04;;;;;;;4.68;3.45;;;22.00;59.30;;;;;;6263086;28;20048;-84
2021/09/25 01:14:05;;;;;;;7.85;3.00;;;21.90;59.40;;;;;;6271036;28;20108;-85
2021/09/25 01:17:10;;;;;;;5.00;3.33;;;21.90;59.60;;;;;;6246601;28;20047;-84
2021/09/25 01:20:12;;;;;;;7.75;3.38;;;21.80;59.70;;;;;;6244049;28;20046;-85
2021/09/25 01:23:15;;;;;;;8.55;3.42;;;21.80;59.90;;;;;;6246786;28;20033;-85
2021/09/25 01:26:16;;;;;;;6.57;3.63;;;21.70;60.00;;;;;;6247496;28;20442;-86
2021/09/25 01:29:17;;;;;;;8.07;3.38;;;21.70;60.60;;;;;;6242640;28;20051;-85
2021/09/25 01:32:18;;;;;;;5.78;3.40;;;21.70;60.70;;;;;;6267834;28;20470;-85
2021/09/25 01:35:22;;;;;;;5.60;3.55;;;21.60;60.80;;;;;;6269168;28;20032;-85
2021/09/25 01:38:24;;;;;;;4.60;3.20;;;21.50;61.00;;;;;;6247840;28;20104;-84
2021/09/25 01:41:24;;;;;;;6.97;3.85;;;21.50;61.30;;;;;;6261893;28;20067;-85
2021/09/25 01:44:26;;;;;;;6.22;3.67;;;21.40;61.50;;;;;;6248309;28;20033;-85
2021/09/25 01:47:27;;;;;;;5.53;3.42;;;21.40;61.70;;;;;;6231094;28;20037;-85
2021/09/25 01:50:29;;;;;;;8.35;3.30;;;21.30;61.80;;;;;;6270653;28;20036;-85
2021/09/25 01:53:30;;;;;;;8.45;3.47;;;21.30;62.00;;;;;;6257440;28;20083;-85
2021/09/25 01:56:30;;;;;;;9.38;3.70;;;21.20;62.10;;;;;;6248227;28;20371;-84
2021/09/25 01:59:31;;;;;;;5.65;3.60;;;21.10;62.20;;;;;;6271370;28;20112;-85
2021/09/25 02:02:32;;;;;;;5.50;3.40;;;21.10;62.40;;;;;;6264406;28;20477;-85
2021/09/25 02:05:33;;;;;;;5.72;3.30;;;21.10;62.50;;;;;;6247406;28;20509;-85
2021/09/25 02:08:36;;;;;;;4.97;3.63;;;21.10;62.60;;;;;;6230428;28;20037;-85
2021/09/25 02:11:37;;;;;;;10.38;3.63;;;21.10;62.60;;;;;;6252778;28;20025;-85
2021/09/25 02:14:39;;;;;;;7.13;3.47;;;21.00;62.80;;;;;;6253948;28;20052;-85
2021/09/25 02:17:41;;;;;;;7.28;3.80;;;21.00;62.80;;;;;;6226673;28;20030;-84
2021/09/25 02:20:42;;;;;;;8.50;3.92;;;21.00;63.00;;;;;;6222444;28;20033;-84
2021/09/25 02:23:43;;;;;;;11.40;3.92;;;21.00;63.00;;;;;;6224230;28;20030;-85
2021/09/25 02:26:44;;;;;;;9.05;4.47;;;21.30;63.40;;;;;;6244061;28;20018;-85
2021/09/25 02:29:45;;;;;;;6.70;3.90;;;21.20;63.60;;;;;;6245073;28;20469;-85
2021/09/25 02:32:47;;;;;;;7.43;3.75;;;20.90;63.70;;;;;;6251942;28;20082;-85
2021/09/25 02:35:49;;;;;;;8.35;3.85;;;20.90;63.60;;;;;;6229015;28;20027;-84
2021/09/25 02:38:50;;;;;;;7.90;3.65;;;20.90;63.70;;;;;;6224629;28;20112;-85
2021/09/25 02:41:51;;;;;;;7.97;3.72;;;20.90;63.70;;;;;;6236225;28;20055;-84
2021/09/25 02:44:52;;;;;;;8.38;3.60;;;20.90;63.80;;;;;;6222862;28;20049;-85
2021/09/25 02:47:53;;;;;;;7.68;3.92;;;20.80;63.80;;;;;;6228373;28;20021;-84
2021/09/25 02:50:54;;;;;;;9.75;4.32;;;20.80;63.80;;;;;;6232700;28;20041;-81
2021/09/25 02:53:55;;;;;;;5.75;3.92;;;20.80;63.80;;;;;;6249457;28;20040;-84
2021/09/25 02:56:56;;;;;;;7.22;3.65;;;20.80;63.80;;;;;;6244689;28;20033;-84
2021/09/25 02:59:58;;;;;;;8.82;3.60;;;20.80;63.80;;;;;;6251832;28;20040;-84
2021/09/25 03:02:59;;;;;;;6.78;3.97;;;20.90;63.90;;;;;;6251383;28;20450;-83
2021/09/25 03:06:01;;;;;;;6.20;4.05;;;20.80;63.80;;;;;;6255420;28;20036;-83
2021/09/25 03:09:02;;;;;;;10.20;4.07;;;20.90;63.80;;;;;;6273572;28;20028;-83
2021/09/25 03:12:03;;;;;;;7.45;3.83;;;20.90;63.80;;;;;;6274856;28;20388;-83
2021/09/25 03:15:05;;;;;;;8.80;4.20;;;20.80;63.60;;;;;;6274953;28;20051;-84
2021/09/25 03:18:07;;;;;;;6.00;3.63;;;20.80;63.60;;;;;;6248090;28;20099;-84
2021/09/25 03:21:08;;;;;;;9.07;4.38;;;20.80;63.80;;;;;;6244291;28;20117;-84
2021/09/25 03:24:08;;;;;;;5.88;3.65;;;20.80;63.90;;;;;;6247755;28;20029;-84
2021/09/25 03:27:09;;;;;;;6.57;3.75;;;20.80;64.00;;;;;;6235214;28;20030;-84
2021/09/25 03:30:12;;;;;;;11.50;3.50;;;20.40;63.60;;;;;;6251444;28;20059;-83
2021/09/25 03:33:13;;;;;;;6.63;4.15;;;20.80;63.90;;;;;;6257355;28;20047;-83
2021/09/25 03:36:14;;;;;;;5.03;3.53;;;20.80;63.80;;;;;;6252212;28;20029;-84
2021/09/25 03:39:15;;;;;;;18.02;3.88;;;20.80;63.90;;;;;;6250538;28;20075;-85
2021/09/25 03:42:16;;;;;;;4.88;3.55;;;20.80;63.80;;;;;;6251978;28;20033;-84
2021/09/25 03:45:16;;;;;;;6.93;3.97;;;20.80;63.80;;;;;;6251453;28;20092;-84
2021/09/25 03:48:17;;;;;;;7.45;3.63;;;20.80;63.70;;;;;;6252829;28;20045;-84
2021/09/25 03:51:18;;;;;;;5.07;2.95;;;20.80;63.70;;;;;;6250506;28;20339;-85
2021/09/25 03:54:19;;;;;;;7.03;4.00;;;20.80;63.60;;;;;;6235884;28;20034;-83
2021/09/25 03:57:20;;;;;;;5.53;3.70;;;20.80;63.60;;;;;;6267630;28;20025;-84
2021/09/25 04:00:25;;;;;;;6.97;4.30;;;20.80;63.50;;;;;;6253762;28;20342;-84
2021/09/25 04:03:26;;;;;;;6.70;3.70;;;20.80;63.50;;;;;;6241209;28;20121;-83
2021/09/25 04:06:27;;;;;;;21.45;3.70;;;20.80;63.50;;;;;;6251216;28;20040;-84
2021/09/25 04:09:29;;;;;;;7.00;3.67;;;20.80;63.50;;;;;;6257637;28;20075;-84
2021/09/25 04:12:29;;;;;;;8.38;3.78;;;20.80;63.40;;;;;;6255722;28;20389;-84
2021/09/25 04:15:30;;;;;;;9.95;4.28;;;20.80;63.40;;;;;;6250109;28;20123;-84
2021/09/25 04:18:31;;;;;;;6.53;3.88;;;20.80;63.60;;;;;;6276161;28;20466;-84
2021/09/25 04:21:34;;;;;;;9.43;3.88;;;20.70;63.50;;;;;;6284064;28;20090;-83
2021/09/25 04:24:35;;;;;;;8.80;3.55;;;20.70;63.60;;;;;;6283444;28;20037;-85
2021/09/25 04:27:35;;;;;;;7.30;4.07;;;20.70;63.80;;;;;;6275035;28;20051;-84
2021/09/25 04:30:39;;;;;;;5.70;3.78;;;20.60;64.30;;;;;;6249883;28;20358;-84
2021/09/25 04:33:41;;;;;;;7.18;3.42;;;20.60;64.00;;;;;;6245521;28;20358;-84
2021/09/25 04:36:42;;;;;;;5.28;3.08;;;20.50;64.10;;;;;;6246860;28;20040;-83
2021/09/25 04:39:43;;;;;;;9.27;3.25;;;20.50;64.30;;;;;;6255738;28;20052;-84
2021/09/25 04:42:44;;;;;;;5.25;3.80;;;20.50;64.50;;;;;;6250976;28;20029;-84
2021/09/25 04:45:45;;;;;;;9.15;3.97;;;20.40;64.60;;;;;;6259690;28;20033;-84
2021/09/25 04:48:48;;;;;;;12.95;3.88;;;20.40;64.60;;;;;;6242175;28;20034;-84
2021/09/25 04:51:50;;;;;;;7.18;3.88;;;20.40;64.70;;;;;;6270522;28;20121;-84
2021/09/25 04:54:51;;;;;;;14.35;3.78;;;20.40;64.80;;;;;;6248242;28;20527;-85
2021/09/25 04:57:52;;;;;;;10.75;3.55;;;20.40;64.80;;;;;;6251506;28;20037;-85
2021/09/25 05:00:53;;;;;;;6.35;3.75;;;20.40;65.00;;;;;;6254709;28;20332;-84
2021/09/25 05:03:54;;;;;;;8.48;4.30;;;20.40;65.00;;;;;;6262416;28;20516;-85
2021/09/25 05:06:55;;;;;;;8.13;3.85;;;20.40;65.00;;;;;;6251106;28;20421;-83
2021/09/25 05:09:56;;;;;;;7.10;4.13;;;20.30;65.00;;;;;;6248417;28;20117;-84
2021/09/25 05:12:56;;;;;;;9.20;4.05;;;20.30;65.10;;;;;;6253161;28;20026;-83
2021/09/25 05:15:57;;;;;;;8.60;3.55;;;20.30;65.20;;;;;;6249066;28;20045;-82
2021/09/25 05:18:58;;;;;;;5.68;3.42;;;20.30;65.10;;;;;;6217036;28;20037;-83
2021/09/25 05:22:00;;;;;;;13.70;4.07;;;20.30;65.10;;;;;;6249755;28;20144;-83
2021/09/25 05:25:01;;;;;;;6.88;4.28;;;20.20;65.10;;;;;;6262091;28;20406;-83
2021/09/25 05:28:02;;;;;;;8.82;3.75;;;20.20;65.20;;;;;;6240575;28;20461;-83
2021/09/25 05:31:03;;;;;;;6.88;3.80;;;20.20;65.40;;;;;;6253750;28;20056;-83
2021/09/25 05:34:04;;;;;;;9.88;3.90;;;20.20;65.40;;;;;;6257597;28;20442;-82
2021/09/25 05:37:05;;;;;;;10.35;4.28;;;20.20;65.50;;;;;;6249166;28;20481;-82
2021/09/25 05:40:07;;;;;;;7.20;4.18;;;20.20;65.50;;;;;;6245966;28;20045;-83
2021/09/25 05:43:08;;;;;;;13.27;4.55;;;20.20;65.60;;;;;;6268024;28;20043;-81
2021/09/25 05:46:09;;;;;;;7.47;4.25;;;20.20;65.60;;;;;;6272621;28;20430;-82
2021/09/25 05:49:10;;;;;;;9.27;4.25;;;20.20;65.50;;;;;;6273703;28;20033;-82
2021/09/25 05:52:11;;;;;;;8.35;4.20;;;20.20;65.40;;;;;;6266932;28;20439;-82
2021/09/25 05:55:13;;;;;;;10.80;3.97;;;20.20;65.50;;;;;;6244612;28;20124;-79
2021/09/25 05:58:14;;;;;;;7.45;3.88;;;20.20;65.40;;;;;;6251357;28;20029;-79
2021/09/25 06:01:15;;;;;;;9.52;4.88;;;20.20;65.50;;;;;;6235790;28;20033;-79
2021/09/25 06:04:16;;;;;;;12.10;4.18;;;20.20;65.40;;;;;;6263726;28;20036;-79
2021/09/25 06:07:20;;;;;;;5.85;3.88;;;20.20;65.40;;;;;;6252304;28;20055;-78
2021/09/25 06:10:22;;;;;;;15.50;4.30;;;20.20;65.40;;;;;;6249463;28;20034;-78
2021/09/25 06:13:23;;;;;;;8.27;4.00;;;20.20;65.40;;;;;;6253693;28;20024;-79
2021/09/25 06:16:25;;;;;;;13.43;3.70;;;20.20;65.50;;;;;;6261025;28;20347;-79
2021/09/25 06:19:25;;;;;;;5.13;3.30;;;20.20;65.50;;;;;;6247996;28;20091;-79
2021/09/25 06:22:26;;;;;;;7.38;3.67;;;20.20;65.40;;;;;;6249374;28;20061;-78
2021/09/25 06:25:27;;;;;;;12.05;4.65;;;20.20;65.40;;;;;;6256628;28;20056;-80
2021/09/25 06:28:29;;;;;;;7.28;4.00;;;20.30;65.40;;;;;;6257549;28;20118;-79
2021/09/25 06:31:30;;;;;;;9.05;3.42;;;20.40;65.20;;;;;;6249496;28;20331;-79
2021/09/25 06:34:31;;;;;;;13.93;4.55;;;20.40;65.00;;;;;;6267242;28;20029;-79
2021/09/25 06:37:32;;;;;;;10.65;4.57;;;20.40;64.90;;;;;;6225318;28;20038;-79
2021/09/25 06:40:33;;;;;;;9.30;3.88;;;20.40;65.00;;;;;;6230226;28;20059;-79
2021/09/25 06:43:34;;;;;;;11.95;4.50;;;20.50;64.70;;;;;;6231060;28;20169;-79
2021/09/25 06:46:35;;;;;;;10.07;4.60;;;20.50;64.50;;;;;;6237691;28;20033;-78
2021/09/25 06:49:36;;;;;;;13.32;4.63;;;20.60;64.50;;;;;;6241079;28;21689;-79
2021/09/25 06:52:37;;;;;;;7.32;4.10;;;20.60;64.60;;;;;;6243729;28;20025;-79
2021/09/25 06:55:38;;;;;;;8.68;3.75;;;20.60;64.40;;;;;;6249011;28;20354;-79
2021/09/25 06:58:39;;;;;;;8.50;3.42;;;20.60;64.30;;;;;;6237095;28;20520;-80
2021/09/25 07:01:40;;;;;;;10.20;4.53;;;20.60;64.50;;;;;;6223145;28;20041;-78
2021/09/25 07:04:41;;;;;;;8.02;4.30;;;20.60;64.30;;;;;;6247999;28;20036;-79
2021/09/25 07:07:42;;;;;;;9.90;4.43;;;20.70;65.20;;;;;;6271560;28;20378;-78
2021/09/25 07:10:43;;;;;;;9.45;3.83;;;20.80;64.20;;;;;;6271111;28;20490;-78
2021/09/25 07:13:44;;;;;;;9.63;3.72;;;20.80;64.00;;;;;;6271356;28;20029;-78
2021/09/25 07:16:45;;;;;;;8.38;4.18;;;20.90;63.70;;;;;;6271504;28;20029;-78
2021/09/25 07:19:46;;;;;;;9.23;4.32;;;20.90;63.50;;;;;;6207067;28;20038;-78
2021/09/25 07:22:51;;;;;;;10.60;4.25;;;21.00;63.30;;;;;;6224207;28;20030;-79
2021/09/25 07:25:52;;;;;;;10.65;4.45;;;21.00;63.20;;;;;;6237214;28;20389;-78
2021/09/25 07:28:53;;;;;;;10.00;4.18;;;21.10;63.10;;;;;;6270519;28;20116;-79
2021/09/25 07:31:54;;;;;;;5.07;3.40;;;21.20;63.10;;;;;;6272254;28;20075;-78
2021/09/25 07:34:55;;;;;;;6.50;3.35;;;21.30;62.80;;;;;;6265825;28;20032;-79
2021/09/25 07:37:56;;;;;;;9.63;3.85;;;21.30;62.30;;;;;;6248220;28;20034;-78
2021/09/25 07:40:57;;;;;;;11.75;3.95;;;21.40;61.90;;;;;;6251614;28;20073;-79
2021/09/25 07:43:59;;;;;;;9.15;4.05;;;21.50;61.70;;;;;;6251672;28;20045;-78
2021/09/25 07:47:00;;;;;;;9.25;4.28;;;21.60;61.40;;;;;;6251090;28;20041;-78
2021/09/25 07:50:01;;;;;;;11.23;4.55;;;21.70;61.20;;;;;;6234968;28;20026;-79
2021/09/25 07:53:02;;;;;;;7.43;4.93;;;21.80;60.80;;;;;;6251265;28;20128;-80
2021/09/25 07:56:06;;;;;;;7.18;4.07;;;21.90;60.40;;;;;;6233888;28;20034;-76
2021/09/25 07:59:07;;;;;;;10.20;5.32;;;22.00;60.40;;;;;;6233993;28;20072;-76
2021/09/25 08:02:08;;;;;;;11.55;4.95;;;21.90;59.90;;;;;;6231118;28;20473;-77
2021/09/25 08:05:10;;;;;;;10.07;4.22;;;22.00;59.90;;;;;;6227292;28;20033;-77
2021/09/25 08:08:11;;;;;;;5.65;3.45;;;22.00;59.90;;;;;;6228009;28;20033;-77
2021/09/25 08:11:13;;;;;;;6.60;3.58;;;22.00;59.80;;;;;;6232781;28;20118;-77
2021/09/25 08:14:14;;;;;;;7.50;3.42;;;22.10;59.60;;;;;;6249548;28;20409;-78
2021/09/25 08:17:15;;;;;;;5.25;3.42;;;22.20;59.60;;;;;;6225569;28;20335;-76
2021/09/25 08:20:17;;;;;;;11.02;3.33;;;22.40;59.30;;;;;;6225790;28;20037;-77
2021/09/25 08:23:18;;;;;;;5.50;3.28;;;22.50;59.00;;;;;;6246347;28;20126;-78
2021/09/25 08:26:19;;;;;;;8.20;3.80;;;22.70;58.70;;;;;;6249246;28;20042;-77
2021/09/25 08:29:20;;;;;;;5.25;3.45;;;22.90;58.50;;;;;;6221026;28;20048;-75
2021/09/25 08:32:23;;;;;;;7.50;3.13;;;23.00;58.10;;;;;;6243123;28;20044;-78
2021/09/25 08:35:24;;;;;;;6.93;3.33;;;23.20;57.90;;;;;;6231598;28;20136;-78
2021/09/25 08:38:25;;;;;;;7.05;3.60;;;23.30;57.50;;;;;;6239625;28;20471;-76
2021/09/25 08:41:26;;;;;;;7.88;3.00;;;23.40;57.20;;;;;;6225103;28;20030;-76
2021/09/25 08:44:28;;;;;;;6.75;3.35;;;23.50;56.80;;;;;;6225176;28;20356;-78
2021/09/25 08:47:29;;;;;;;5.28;3.20;;;23.60;56.60;;;;;;6248306;28;20044;-78
2021/09/25 08:50:30;;;;;;;17.50;3.80;;;23.70;56.30;;;;;;6232452;28;20064;-79
2021/09/25 08:53:31;;;;;;;6.97;3.25;;;23.80;56.00;;;;;;6248572;28;20037;-78
2021/09/25 08:56:32;;;;;;;9.02;3.83;;;23.80;55.80;;;;;;6258661;28;20518;-80
2021/09/25 08:59:33;;;;;;;7.10;4.07;;;23.90;55.70;;;;;;6259196;28;20045;-77
2021/09/25 09:02:36;;;;;;;7.35;3.08;;;23.90;55.70;;;;;;6225317;28;20033;-79
2021/09/25 09:05:37;;;;;;;6.28;3.10;;;24.00;55.60;;;;;;6252473;28;20033;-77
2021/09/25 09:08:40;;;;;;;11.68;2.95;;;24.10;55.30;;;;;;6273090;28;20075;-80
2021/09/25 09:11:49;;;;;;;11.52;3.03;;;24.10;55.10;;;;;;6272491;28;20028;-79
2021/09/25 09:14:52;;;;;;;10.38;2.80;;;24.10;54.90;;;;;;6272044;28;20032;-78
2021/09/25 09:17:52;;;;;;;12.63;3.35;;;24.20;54.70;;;;;;6255939;28;20043;-77
2021/09/25 09:21:22;;;;;;;6.10;3.15;;;24.20;54.60;;;;;;6250514;28;20116;-78
2021/09/25 09:24:23;;;;;;;5.75;3.25;;;24.20;54.40;;;;;;6248164;28;20398;-79
2021/09/25 09:27:27;;;;;;;12.10;3.38;;;24.30;54.30;;;;;;6231969;28;20083;-79
2021/09/25 09:30:29;;;;;;;7.97;3.25;;;24.30;54.20;;;;;;6272020;28;20048;-77
2021/09/25 09:33:34;;;;;;;5.25;2.63;;;24.40;53.90;;;;;;6260037;28;20040;-79
2021/09/25 09:36:42;;;;;;;7.15;3.03;;;24.50;53.50;;;;;;6232678;28;20022;-77
2021/09/25 09:39:43;;;;;;;7.97;3.53;;;24.50;53.30;;;;;;6248770;28;20083;-78
2021/09/25 09:42:49;;;;;;;12.40;3.25;;;24.60;53.20;;;;;;6249405;28;20052;-80
2021/09/25 09:45:56;;;;;;;5.03;2.78;;;24.70;53.10;;;;;;6248099;28;20048;-80
2021/09/25 09:48:57;;;;;;;6.53;3.15;;;24.80;53.00;;;;;;6223551;28;20086;-78
2021/09/25 09:52:06;;;;;;;5.82;2.70;;;24.90;52.70;;;;;;6232257;28;20056;-78
2021/09/25 09:55:08;;;;;;;6.95;2.58;;;25.20;52.30;;;;;;6246912;28;20087;-80
2021/09/25 09:58:08;;;;;;;7.63;2.70;;;25.50;51.70;;;;;;6252793;28;20047;-79
2021/09/25 10:01:10;;;;;;;7.20;3.35;;;25.70;51.30;;;;;;6271160;28;20025;-78
2021/09/25 10:04:13;;;;;;;8.77;3.13;;;25.90;50.90;;;;;;6268618;28;20037;-79
2021/09/25 10:07:14;;;;;;;4.63;2.83;;;26.10;50.50;;;;;;6270999;28;20108;-80
2021/09/25 10:10:15;;;;;;;9.82;3.20;;;26.20;50.10;;;;;;6270880;28;20064;-78
2021/09/25 10:13:17;;;;;;;13.55;3.58;;;26.30;49.60;;;;;;6250937;28;20324;-79
2021/09/25 10:16:18;;;;;;;9.65;2.58;;;26.30;49.40;;;;;;6231068;28;20025;-80
2021/09/25 10:19:22;;;;;;;8.38;3.22;;;26.40;49.30;;;;;;6248546;28;20042;-80
2021/09/25 10:22:27;;;;;;;10.32;3.03;;;26.60;49.00;;;;;;6271094;28;20060;-79
2021/09/25 10:25:28;;;;;;;6.15;2.60;;;26.80;48.60;;;;;;6262672;28;20040;-78
2021/09/25 10:28:30;;;;;;;10.77;2.50;;;26.90;48.30;;;;;;6267411;28;20029;-79
2021/09/25 10:31:34;;;;;;;7.45;3.30;;;27.10;48.10;;;;;;6260887;28;20041;-78
2021/09/25 10:34:35;;;;;;;5.32;2.83;;;27.40;47.80;;;;;;6258223;28;20040;-79
2021/09/25 10:37:46;;;;;;;4.20;2.88;;;27.70;47.30;;;;;;6250617;28;20025;-78
2021/09/25 10:40:48;;;;;;;9.30;4.10;;;28.00;46.80;;;;;;6230340;28;20466;-78
2021/09/25 10:43:50;;;;;;;6.28;3.13;;;28.30;46.50;;;;;;6230219;28;20113;-78
2021/09/25 10:46:51;;;;;;;7.22;3.55;;;28.50;46.10;;;;;;6229992;28;20026;-78
2021/09/25 10:49:57;;;;;;;7.10;2.83;;;28.70;45.80;;;;;;6240296;28;20033;-77
2021/09/25 10:53:14;;;;;;;9.23;3.20;;;28.80;45.50;;;;;;6225544;28;20414;-80
2021/09/25 10:56:29;;;;;;;8.05;3.17;;;28.90;45.20;;;;;;6242740;28;20030;-76
2021/09/25 10:59:31;;;;;;;12.13;3.40;;;29.00;44.60;;;;;;6220433;28;20037;-77
2021/09/25 11:02:42;;;;;;;16.20;3.83;;;29.10;44.70;;;;;;6248004;28;20036;-77
2021/09/25 11:06:05;;;;;;;8.73;3.33;;;29.30;44.70;;;;;;6241050;28;20060;-77
2021/09/25 11:09:14;;;;;;;5.20;2.67;;;29.50;44.40;;;;;;6244190;28;20113;-77
2021/09/25 11:12:16;;;;;;;5.35;2.88;;;29.60;43.90;;;;;;6242437;28;20018;-77
2021/09/25 11:15:43;;;;;;;5.45;3.03;;;29.50;43.60;;;;;;6241665;28;20025;-76
2021/09/25 11:18:50;;;;;;;5.53;2.95;;;29.60;43.50;;;;;;6247926;28;20108;-76
2021/09/25 11:22:18;;;;;;;8.45;3.20;;;29.90;42.70;;;;;;6271174;28;20025;-76
2021/09/25 11:25:21;;;;;;;4.68;2.80;;;30.00;42.30;;;;;;6239488;28;20029;-76
2021/09/25 11:28:23;;;;;;;10.23;2.85;;;30.30;42.10;;;;;;6273492;28;20108;-76
2021/09/25 11:31:23;;;;;;;7.82;3.22;;;30.50;41.70;;;;;;6255224;28;20045;-79
2021/09/25 11:34:28;;;;;;;13.68;5.90;;;30.80;41.20;;;;;;6252795;28;20042;-77
2021/09/25 11:37:29;;;;;;;9.73;4.32;;;31.10;40.40;;;;;;6254807;28;20041;-77
2021/09/25 11:40:36;;;;;;;7.68;2.88;;;31.40;39.90;;;;;;6253306;28;20459;-77
2021/09/25 11:43:37;;;;;;;5.35;3.50;;;31.70;39.60;;;;;;6231804;28;20049;-77
2021/09/25 11:46:39;;;;;;;7.10;3.28;;;32.10;38.90;;;;;;6234649;28;20034;-77
2021/09/25 11:49:40;;;;;;;5.75;3.47;;;32.50;38.10;;;;;;6232046;28;20025;-77
2021/09/25 11:52:43;;;;;;;13.07;3.15;;;32.80;37.30;;;;;;6233342;28;20366;-78
2021/09/25 11:55:46;;;;;;;10.05;4.28;;;33.00;36.50;;;;;;6235689;28;20088;-78
2021/09/25 11:58:47;;;;;;;7.72;4.15;;;33.10;36.50;;;;;;6229548;28;20083;-78
2021/09/25 12:01:48;;;;;;;7.22;3.13;;;33.40;35.70;;;;;;6243421;28;20049;-78
2021/09/25 12:04:49;;;;;;;8.65;3.10;;;33.40;35.40;;;;;;6263382;28;20030;-79
2021/09/25 12:07:50;;;;;;;6.53;2.75;;;33.30;34.80;;;;;;6265317;28;20102;-77
2021/09/25 12:10:57;;;;;;;8.55;3.03;;;33.20;35.20;;;;;;6235217;28;20112;-77
2021/09/25 12:13:58;;;;;;;7.68;2.85;;;33.10;35.50;;;;;;6232733;28;20091;-77
2021/09/25 12:17:02;;;;;;;5.57;2.95;;;33.20;35.40;;;;;;6246797;28;20030;-78
2021/09/25 12:20:31;;;;;;;3.95;3.28;;;33.60;35.00;;;;;;6247072;28;20473;-77
2021/09/25 12:23:51;;;;;;;9.50;3.45;;;33.90;34.40;;;;;;6247124;28;20438;-77
2021/09/25 12:26:55;;;;;;;10.50;2.88;;;34.30;33.90;;;;;;6236926;28;20087;-77
2021/09/25 12:30:06;;;;;;;4.55;3.17;;;34.20;33.60;;;;;;6242178;28;20048;-77
2021/09/25 12:33:08;;;;;;;6.13;2.70;;;34.30;34.30;;;;;;6221468;28;20034;-77
2021/09/25 12:36:10;;;;;;;7.60;2.90;;;34.80;33.40;;;;;;6220022;28;20052;-76
2021/09/25 12:39:13;;;;;;;6.55;3.13;;;35.30;32.80;;;;;;6219950;28;20037;-75
2021/09/25 12:42:26;;;;;;;11.70;2.88;;;35.90;31.50;;;;;;6227891;28;20029;-78
2021/09/25 12:45:27;;;;;;;5.40;3.00;;;36.10;31.40;;;;;;6250681;28;21032;-78
2021/09/25 12:48:28;;;;;;;9.57;2.80;;;36.60;30.70;;;;;;6256636;28;20032;-77
2021/09/25 12:51:36;;;;;;;7.93;2.75;;;36.70;29.50;;;;;;6229108;28;20522;-77
2021/09/25 12:54:41;;;;;;;4.68;2.13;;;36.00;29.90;;;;;;6249987;28;20385;-77
2021/09/25 12:57:58;;;;;;;5.75;2.15;;;35.30;30.80;;;;;;6246166;28;20033;-77
2021/09/25 13:00:59;;;;;;;8.57;2.65;;;34.70;31.40;;;;;;6246092;28;20504;-77
2021/09/25 13:04:18;;;;;;;9.75;2.83;;;34.20;31.80;;;;;;6251430;28;20025;-77
2021/09/25 13:07:27;;;;;;;4.90;2.38;;;33.70;32.40;;;;;;6229885;28;20029;-77
2021/09/25 13:10:28;;;;;;;10.23;2.97;;;33.60;32.40;;;;;;6244759;28;20033;-77
2021/09/25 13:13:29;;;;;;;21.50;8.48;;;33.70;32.20;;;;;;6246591;28;20426;-76
2021/09/25 13:16:30;;;;;;;5.00;3.65;;;33.60;32.40;;;;;;6246917;28;20076;-77
2021/09/25 13:19:31;;;;;;;10.05;2.83;;;33.10;33.00;;;;;;6247566;28;20453;-77
2021/09/25 13:22:32;;;;;;;7.22;3.40;;;32.80;33.60;;;;;;6263385;28;20111;-77
2021/09/25 13:25:33;;;;;;;10.07;2.60;;;32.60;33.70;;;;;;6269197;28;20041;-78
2021/09/25 13:28:34;;;;;;;5.30;2.13;;;32.40;34.10;;;;;;6265891;28;20056;-78
2021/09/25 13:31:35;;;;;;;5.35;2.50;;;32.20;34.40;;;;;;6246562;28;20030;-78
2021/09/25 13:34:36;;;;;;;11.43;2.75;;;32.10;34.80;;;;;;6262422;28;20108;-78
2021/09/25 13:37:37;;;;;;;7.72;2.58;;;31.90;35.00;;;;;;6268609;28;20035;-78
2021/09/25 13:40:38;;;;;;;8.73;2.97;;;31.90;35.20;;;;;;6267690;28;20067;-78
2021/09/25 13:43:39;;;;;;;6.30;2.85;;;31.80;35.40;;;;;;6269192;28;20497;-78
2021/09/25 13:46:40;;;;;;;8.75;2.88;;;31.70;35.80;;;;;;6268987;28;20052;-77
2021/09/25 13:49:41;;;;;;;7.88;2.40;;;31.50;36.00;;;;;;6251845;28;20033;-78
2021/09/25 13:52:42;;;;;;;10.20;2.75;;;31.40;36.20;;;;;;6244808;28;20095;-76
2021/09/25 13:55:43;;;;;;;5.95;2.30;;;31.30;36.30;;;;;;6219632;28;20033;-77
2021/09/25 13:58:44;;;;;;;9.90;2.70;;;31.20;36.30;;;;;;6232066;28;20056;-78
2021/09/25 14:01:45;;;;;;;12.13;2.30;;;31.10;36.30;;;;;;6243536;28;20163;-76
2021/09/25 14:04:46;;;;;;;8.35;3.45;;;30.90;36.30;;;;;;6236941;28;20044;-76
2021/09/25 14:07:47;;;;;;;11.20;3.58;;;30.70;36.60;;;;;;6222219;28;20121;-76
2021/09/25 14:10:48;;;;;;;6.38;2.55;;;30.60;36.70;;;;;;6234394;28;20108;-77
2021/09/25 14:13:49;;;;;;;8.05;2.95;;;30.40;36.80;;;;;;6241593;28;20041;-77
2021/09/25 14:16:50;;;;;;;5.22;2.50;;;30.40;37.00;;;;;;6244615;28;20064;-78
2021/09/25 14:19:51;;;;;;;8.68;2.53;;;30.20;37.20;;;;;;6227140;28;20030;-76
2021/09/25 14:22:51;;;;;;;4.55;2.35;;;29.90;37.50;;;;;;6242786;28;20067;-77
2021/09/25 14:25:52;;;;;;;7.95;2.65;;;29.80;37.90;;;;;;6222958;28;20033;-78
2021/09/25 14:28:54;;;;;;;6.80;2.55;;;29.70;38.10;;;;;;6259834;28;20047;-77
2021/09/25 14:31:55;;;;;;;12.40;2.53;;;29.70;38.30;;;;;;6267835;28;20354;-76
2021/09/25 14:34:56;;;;;;;7.75;2.42;;;29.70;38.50;;;;;;6262014;28;20041;-77
2021/09/25 14:37:57;;;;;;;6.72;2.30;;;29.60;38.60;;;;;;6250369;28;20084;-76
2021/09/25 14:40:59;;;;;;;5.82;2.30;;;29.50;38.80;;;;;;6260338;28;20052;-77
2021/09/25 14:44:01;;;;;;;11.73;2.85;;;29.40;39.00;;;;;;6265749;28;20100;-76
2021/09/25 14:47:02;;;;;;;4.53;2.33;;;29.40;39.30;;;;;;6245305;28;20439;-76
2021/09/25 14:50:03;;;;;;;11.90;3.05;;;29.30;39.40;;;;;;6237409;28;20039;-78
2021/09/25 14:53:05;;;;;;;12.18;2.90;;;29.30;39.70;;;;;;6234606;28;20329;-78
2021/09/25 14:56:06;;;;;;;4.13;2.80;;;29.20;39.90;;;;;;6239536;28;20037;-78
2021/09/25 14:59:07;;;;;;;6.18;2.83;;;29.20;40.10;;;;;;6241597;28;20042;-78
2021/09/25 15:02:10;;;;;;;5.25;2.13;;;29.10;40.30;;;;;;6226855;28;20120;-78
2021/09/25 15:05:11;;;;;;;12.32;2.67;;;29.10;40.50;;;;;;6239052;28;20103;-78
2021/09/25 15:08:12;;;;;;;16.42;2.47;;;29.10;40.60;;;;;;6222754;28;20401;-77
2021/09/25 15:11:13;;;;;;;6.18;2.25;;;29.10;40.60;;;;;;6236293;28;20133;-81
2021/09/25 15:14:14;;;;;;;5.72;2.50;;;29.10;40.80;;;;;;6226336;28;20504;-81
2021/09/25 15:17:15;;;;;;;12.55;3.90;;;29.00;40.90;;;;;;6223966;28;20078;-81
2021/09/25 15:20:17;;;;;;;11.95;2.85;;;28.90;41.10;;;;;;6230404;28;20043;-81
2021/09/25 15:23:17;;;;;;;10.82;2.67;;;28.90;41.30;;;;;;6214938;28;20056;-78
2021/09/25 15:26:19;;;;;;;7.07;2.70;;;28.80;41.40;;;;;;6239886;28;20129;-81
2021/09/25 15:29:20;;;;;;;18.08;2.85;;;28.70;41.50;;;;;;6249667;28;20451;-80
2021/09/25 15:32:22;;;;;;;4.88;2.70;;;28.70;41.70;;;;;;6248424;28;20034;-81
2021/09/25 15:35:23;;;;;;;7.40;2.60;;;28.60;42.10;;;;;;6235931;28;20372;-81
2021/09/25 15:38:24;;;;;;;11.25;3.05;;;28.50;42.60;;;;;;6239594;28;20045;-80
2021/09/25 15:41:26;;;;;;;5.57;3.00;;;28.50;43.00;;;;;;6231828;28;20393;-79
2021/09/25 15:44:27;;;;;;;8.43;3.13;;;28.40;43.20;;;;;;6231969;28;20037;-80
2021/09/25 15:47:28;;;;;;;5.45;2.67;;;28.40;43.40;;;;;;6247462;28;20094;-80